createdAt,value
2023-05-22T00:07:20.928Z,56.54
2023-05-22T00:17:42.545Z,56.64
2023-05-22T00:28:04.877Z,56.63
2023-05-22T00:38:37.870Z,56.73
2023-05-22T00:48:59.245Z,56.74
2023-05-22T00:59:21.223Z,56.99
2023-05-22T01:09:42.729Z,56.82
2023-05-22T01:20:32.425Z,56.55
2023-05-22T01:31:08.352Z,56.70
2023-05-22T01:41:29.984Z,56.87
2023-05-22T01:51:57.693Z,56.76
2023-05-22T02:02:20.559Z,56.79
2023-05-22T02:12:42.412Z,56.80
2023-05-22T02:23:04.172Z,56.80
2023-05-22T02:33:27.202Z,56.93
2023-05-22T02:43:48.751Z,56.53
2023-05-22T02:54:10.280Z,56.78
2023-05-22T03:04:31.405Z,56.81
2023-05-22T03:14:53.083Z,57.00
2023-05-22T03:25:14.589Z,56.54
2023-05-22T03:35:36.782Z,56.70
2023-05-22T03:45:59.560Z,55.27
2023-05-22T03:56:22.402Z,56.45
2023-05-22T04:06:44.233Z,55.86
2023-05-22T04:17:07.530Z,56.21
2023-05-22T04:27:30.212Z,55.70
2023-05-22T04:37:51.890Z,55.83
2023-05-22T04:48:13.201Z,56.19
2023-05-22T04:58:34.945Z,56.32
2023-05-22T05:08:56.461Z,55.71
2023-05-22T05:19:21.776Z,55.32
2023-05-22T05:29:43.934Z,55.00
2023-05-22T05:40:13.980Z,55.29
2023-05-22T05:50:40.883Z,55.58
2023-05-22T06:01:03.930Z,55.66
2023-05-22T06:11:26.337Z,55.39
2023-05-22T06:21:50.285Z,55.06
2023-05-22T06:32:14.652Z,55.21
2023-05-22T06:42:37.901Z,55.03
2023-05-22T06:53:25.698Z,54.72
2023-05-22T07:03:47.343Z,54.37
2023-05-22T07:14:40.981Z,54.03
2023-05-22T07:25:02.266Z,54.02
2023-05-22T07:35:27.834Z,54.24
2023-05-22T07:45:49.523Z,54.08
2023-05-22T07:56:17.807Z,53.99
2023-05-22T08:06:41.390Z,54.06
2023-05-22T08:17:02.967Z,53.67
2023-05-22T08:27:24.717Z,53.68
2023-05-22T08:37:46.669Z,53.49
2023-05-22T08:48:13.263Z,53.53
2023-05-22T08:58:36.360Z,53.15
2023-05-22T09:08:58.310Z,53.13
2023-05-22T09:19:19.934Z,53.21
2023-05-22T09:29:51.542Z,52.99
2023-05-22T09:40:14.430Z,52.88
2023-05-22T09:50:37.208Z,52.84
2023-05-22T10:00:59.527Z,52.65
2023-05-22T10:11:22.132Z,52.64
2023-05-22T10:21:45.873Z,52.60
2023-05-22T10:32:19.616Z,52.47
2023-05-22T10:42:50.264Z,52.32
2023-05-22T10:53:28.923Z,52.63
2023-05-22T11:03:58.567Z,52.92
2023-05-22T11:14:20.987Z,52.75
2023-05-22T11:24:42.953Z,52.64
2023-05-22T11:35:05.687Z,52.62
2023-05-22T11:45:27.228Z,52.62
2023-05-22T11:55:49.942Z,52.18
2023-05-22T12:06:11.514Z,52.01
2023-05-22T12:16:36.894Z,51.41
2023-05-22T12:26:58.287Z,51.52
2023-05-22T12:37:21.276Z,51.22
2023-05-22T12:47:42.581Z,51.32
2023-05-22T12:58:04.621Z,51.28
2023-05-22T13:08:26.066Z,51.17
2023-05-22T13:18:48.070Z,51.20
2023-05-22T13:29:09.716Z,51.10
2023-05-22T13:39:30.847Z,51.09
2023-05-22T13:49:52.627Z,46.93
2023-05-22T14:00:14.341Z,45.32
2023-05-22T14:10:36.340Z,45.22
2023-05-22T14:20:57.312Z,44.33
2023-05-22T14:31:18.277Z,44.88
2023-05-22T14:41:39.571Z,45.78
2023-05-22T14:52:02.068Z,43.28
2023-05-22T15:02:24.920Z,45.17
2023-05-22T15:12:46.668Z,45.92
2023-05-22T15:23:08.082Z,46.27
2023-05-22T15:33:29.733Z,47.28
2023-05-22T15:43:53.439Z,47.74
2023-05-22T15:54:14.908Z,48.36
2023-05-22T16:04:36.463Z,48.69
2023-05-22T16:15:00.735Z,49.25
2023-05-22T16:25:22.898Z,49.19
2023-05-22T16:35:47.211Z,49.52
2023-05-22T16:46:08.977Z,50.33
2023-05-22T16:56:32.939Z,50.83
2023-05-22T17:06:56.017Z,51.10
2023-05-22T17:17:17.443Z,51.13
2023-05-22T17:27:39.081Z,51.31
2023-05-22T17:38:00.789Z,51.27
2023-05-22T17:48:24.023Z,51.32
2023-05-22T17:58:45.610Z,51.75
2023-05-22T18:09:08.068Z,52.33
2023-05-22T18:19:29.915Z,52.43
2023-05-22T18:29:52.097Z,52.56
2023-05-22T18:40:13.772Z,52.66
2023-05-22T18:50:35.082Z,52.65
2023-05-22T19:00:56.663Z,52.80
2023-05-22T19:11:18.895Z,52.43
2023-05-22T19:21:40.664Z,52.06
2023-05-22T19:32:03.148Z,51.92
2023-05-22T19:42:24.512Z,51.68
2023-05-22T19:52:46.153Z,52.14
2023-05-22T20:03:07.579Z,52.73
2023-05-22T20:13:29.111Z,52.96
2023-05-22T20:23:50.144Z,53.57
2023-05-22T20:34:11.930Z,54.10
2023-05-22T20:44:33.350Z,54.68
2023-05-22T20:54:54.575Z,55.79
2023-05-22T21:05:16.259Z,57.18
2023-05-22T21:15:37.735Z,58.18
2023-05-22T21:25:58.995Z,58.97
2023-05-22T21:36:20.440Z,58.88
2023-05-22T21:46:42.354Z,58.74
2023-05-22T21:57:03.687Z,58.98
2023-05-22T22:07:26.036Z,58.26
2023-05-22T22:17:47.762Z,58.13
2023-05-22T22:28:09.257Z,58.00
2023-05-22T22:38:33.092Z,57.81
2023-05-22T22:48:55.655Z,57.46
2023-05-22T22:59:17.318Z,57.50
2023-05-22T23:09:40.652Z,57.95
2023-05-22T23:20:02.240Z,58.07
2023-05-22T23:30:23.598Z,58.41
2023-05-22T23:40:45.230Z,59.00
2023-05-22T23:51:10.346Z,58.96
